Metalton, Arkansas
Current Conditions -  °F | °C
As of 2:53 PM on Friday 24 Oct 2014 (Local Time) from KHRO Reporting Station
Broken Clouds Broken Clouds  
Wind Chill: 78°   Ceiling: 3900
Heat Index: 79°   Visibility: 10mi
Dew Point: 59°   Wind: 5mph
Humidity: 52%   Direction: 290°WNW
Pressure: 30.08"   Gusts: NA
Location:  36.3056°N, 93.5491°W
Report Text: KHRO 241953Z AUTO 29004KT 10SM BKN039 26/15 A3008 RMK AO2 SLP179 T02560150
Loading
Personal Weather Stations






























Interactive Weather Map
Tropical Storm Tracking
New forecast layout! Learn more

10-Day Weather Forecast

Advertisements
Track Severe Weather on mobile